sensor_id;sensor_type;location;lat;lon;timestamp;pressure;altitude;pressure_sealevel;temperature;humidity
13367;BME280;6752;52.612;13.630;2022-12-10T00:00:12;100264.70;;;-1.01;100.00
13367;BME280;6752;52.612;13.630;2022-12-10T00:05:18;100259.25;;;-1.17;100.00
13367;BME280;6752;52.612;13.630;2022-12-10T00:10:20;100249.63;;;-1.28;100.00
13367;BME280;6752;52.612;13.630;2022-12-10T00:15:26;100256.92;;;-1.16;100.00
13367;BME280;6752;52.612;13.630;2022-12-10T00:20:29;100250.05;;;-1.27;100.00
13367;BME280;6752;52.612;13.630;2022-12-10T00:25:32;100250.84;;;-1.13;100.00
13367;BME280;6752;52.612;13.630;2022-12-10T00:30:34;100254.74;;;-1.25;100.00
13367;BME280;6752;52.612;13.630;2022-12-10T00:35:39;100250.41;;;-1.22;100.00
13367;BME280;6752;52.612;13.630;2022-12-10T00:40:42;100258.48;;;-1.40;100.00
13367;BME280;6752;52.612;13.630;2022-12-10T00:45:44;100259.81;;;-1.40;100.00
13367;BME280;6752;52.612;13.630;2022-12-10T00:50:59;100260.41;;;-1.28;100.00
13367;BME280;6752;52.612;13.630;2022-12-10T00:56:00;100266.51;;;-1.27;100.00
13367;BME280;6752;52.612;13.630;2022-12-10T01:01:22;100269.29;;;-1.24;100.00
13367;BME280;6752;52.612;13.630;2022-12-10T01:06:24;100266.36;;;-1.26;100.00
13367;BME280;6752;52.612;13.630;2022-12-10T01:11:29;100265.80;;;-1.20;100.00
13367;BME280;6752;52.612;13.630;2022-12-10T01:16:31;100270.55;;;-1.23;100.00
13367;BME280;6752;52.612;13.630;2022-12-10T01:21:34;100281.56;;;-1.26;100.00
13367;BME280;6752;52.612;13.630;2022-12-10T01:26:39;100280.33;;;-1.23;100.00
13367;BME280;6752;52.612;13.630;2022-12-10T01:31:41;100275.83;;;-1.13;100.00
13367;BME280;6752;52.612;13.630;2022-12-10T01:36:44;100279.09;;;-1.19;100.00
13367;BME280;6752;52.612;13.630;2022-12-10T01:41:48;100279.33;;;-1.22;100.00
13367;BME280;6752;52.612;13.630;2022-12-10T01:46:52;100273.06;;;-1.21;100.00
13367;BME280;6752;52.612;13.630;2022-12-10T01:51:55;100276.47;;;-1.24;100.00
13367;BME280;6752;52.612;13.630;2022-12-10T01:57:03;100273.66;;;-1.14;100.00
13367;BME280;6752;52.612;13.630;2022-12-10T02:02:33;100271.84;;;-1.09;100.00
13367;BME280;6752;52.612;13.630;2022-12-10T02:12:53;100262.69;;;-1.16;100.00
13367;BME280;6752;52.612;13.630;2022-12-10T02:18:11;100256.16;;;-1.17;100.00
13367;BME280;6752;52.612;13.630;2022-12-10T02:23:09;100247.89;;;-1.37;100.00
13367;BME280;6752;52.612;13.630;2022-12-10T02:28:39;100242.47;;;-1.36;100.00
13367;BME280;6752;52.612;13.630;2022-12-10T02:33:42;100248.20;;;-1.49;100.00
13367;BME280;6752;52.612;13.630;2022-12-10T02:38:42;100253.59;;;-1.53;100.00
13367;BME280;6752;52.612;13.630;2022-12-10T02:43:48;100257.77;;;-1.69;100.00
13367;BME280;6752;52.612;13.630;2022-12-10T02:48:50;100253.45;;;-1.61;100.00
13367;BME280;6752;52.612;13.630;2022-12-10T02:54:05;100252.77;;;-1.63;100.00
13367;BME280;6752;52.612;13.630;2022-12-10T02:59:09;100258.36;;;-1.52;100.00
13367;BME280;6752;52.612;13.630;2022-12-10T03:05:01;100257.41;;;-1.56;100.00
13367;BME280;6752;52.612;13.630;2022-12-10T03:09:23;100258.36;;;-1.52;100.00
13367;BME280;6752;52.612;13.630;2022-12-10T03:14:31;100258.13;;;-1.50;100.00
13367;BME280;6752;52.612;13.630;2022-12-10T03:19:37;100258.58;;;-1.46;100.00
13367;BME280;6752;52.612;13.630;2022-12-10T03:24:38;100260.45;;;-1.33;100.00
13367;BME280;6752;52.612;13.630;2022-12-10T03:29:50;100254.55;;;-1.28;100.00
13367;BME280;6752;52.612;13.630;2022-12-10T03:34:50;100257.52;;;-1.22;100.00
13367;BME280;6752;52.612;13.630;2022-12-10T03:39:51;100259.41;;;-1.05;100.00
13367;BME280;6752;52.612;13.630;2022-12-10T03:44:54;100256.34;;;-1.02;100.00
13367;BME280;6752;52.612;13.630;2022-12-10T03:49:56;100260.75;;;-1.05;100.00
13367;BME280;6752;52.612;13.630;2022-12-10T03:54:59;100256.86;;;-0.98;100.00
13367;BME280;6752;52.612;13.630;2022-12-10T04:00:02;100250.49;;;-1.01;100.00
13367;BME280;6752;52.612;13.630;2022-12-10T04:05:04;100260.19;;;-0.91;100.00
13367;BME280;6752;52.612;13.630;2022-12-10T04:10:06;100263.47;;;-0.88;100.00
13367;BME280;6752;52.612;13.630;2022-12-10T04:15:09;100267.60;;;-0.81;100.00
13367;BME280;6752;52.612;13.630;2022-12-10T04:20:29;100259.23;;;-0.82;100.00
13367;BME280;6752;52.612;13.630;2022-12-10T04:25:50;100265.09;;;-0.70;100.00
13367;BME280;6752;52.612;13.630;2022-12-10T04:31:10;100257.18;;;-0.75;100.00
13367;BME280;6752;52.612;13.630;2022-12-10T04:36:15;100257.65;;;-0.71;100.00
13367;BME280;6752;52.612;13.630;2022-12-10T04:41:18;100257.08;;;-0.79;100.00
13367;BME280;6752;52.612;13.630;2022-12-10T04:46:22;100260.17;;;-0.78;100.00
13367;BME280;6752;52.612;13.630;2022-12-10T04:51:25;100270.59;;;-0.84;100.00
13367;BME280;6752;52.612;13.630;2022-12-10T04:56:30;100272.62;;;-0.82;100.00
13367;BME280;6752;52.612;13.630;2022-12-10T05:01:33;100271.03;;;-0.71;100.00
13367;BME280;6752;52.612;13.630;2022-12-10T05:06:38;100269.42;;;-0.86;100.00
13367;BME280;6752;52.612;13.630;2022-12-10T05:11:42;100267.45;;;-0.67;100.00
13367;BME280;6752;52.612;13.630;2022-12-10T05:16:48;100264.63;;;-0.74;100.00
13367;BME280;6752;52.612;13.630;2022-12-10T05:21:49;100272.09;;;-0.86;100.00
13367;BME280;6752;52.612;13.630;2022-12-10T05:27:10;100273.43;;;-0.86;100.00
13367;BME280;6752;52.612;13.630;2022-12-10T05:32:15;100270.13;;;-0.67;100.00
13367;BME280;6752;52.612;13.630;2022-12-10T05:37:17;100270.16;;;-0.71;100.00
13367;BME280;6752;52.612;13.630;2022-12-10T05:42:22;100276.16;;;-0.78;100.00
13367;BME280;6752;52.612;13.630;2022-12-10T05:47:25;100274.83;;;-0.73;100.00
13367;BME280;6752;52.612;13.630;2022-12-10T05:52:30;100272.25;;;-0.87;100.00
13367;BME280;6752;52.612;13.630;2022-12-10T05:57:32;100281.19;;;-0.74;100.00
13367;BME280;6752;52.612;13.630;2022-12-10T06:02:37;100280.75;;;-0.66;100.00
13367;BME280;6752;52.612;13.630;2022-12-10T06:07:39;100276.84;;;-0.63;100.00
13367;BME280;6752;52.612;13.630;2022-12-10T06:12:45;100282.59;;;-0.66;100.00
13367;BME280;6752;52.612;13.630;2022-12-10T06:17:47;100275.75;;;-0.74;100.00
13367;BME280;6752;52.612;13.630;2022-12-10T06:22:53;100278.31;;;-0.81;100.00
13367;BME280;6752;52.612;13.630;2022-12-10T06:27:55;100284.09;;;-0.77;100.00
13367;BME280;6752;52.612;13.630;2022-12-10T06:33:01;100290.91;;;-0.86;100.00
13367;BME280;6752;52.612;13.630;2022-12-10T06:38:03;100293.61;;;-0.82;100.00
13367;BME280;6752;52.612;13.630;2022-12-10T06:43:08;100303.91;;;-0.79;100.00
13367;BME280;6752;52.612;13.630;2022-12-10T06:48:11;100306.19;;;-0.75;100.00
13367;BME280;6752;52.612;13.630;2022-12-10T06:53:16;100311.36;;;-0.77;100.00
13367;BME280;6752;52.612;13.630;2022-12-10T06:58:18;100316.81;;;-0.74;100.00
13367;BME280;6752;52.612;13.630;2022-12-10T07:03:23;100321.64;;;-0.78;100.00
13367;BME280;6752;52.612;13.630;2022-12-10T07:08:25;100325.60;;;-0.64;100.00
13367;BME280;6752;52.612;13.630;2022-12-10T07:13:30;100325.22;;;-0.82;100.00
13367;BME280;6752;52.612;13.630;2022-12-10T07:18:33;100329.70;;;-0.73;100.00
13367;BME280;6752;52.612;13.630;2022-12-10T07:23:39;100326.97;;;-0.82;100.00
13367;BME280;6752;52.612;13.630;2022-12-10T07:28:41;100335.39;;;-0.72;100.00
13367;BME280;6752;52.612;13.630;2022-12-10T07:33:50;100334.34;;;-0.80;100.00
13367;BME280;6752;52.612;13.630;2022-12-10T07:38:53;100339.80;;;-0.67;100.00
13367;BME280;6752;52.612;13.630;2022-12-10T07:43:58;100340.72;;;-0.68;100.00
13367;BME280;6752;52.612;13.630;2022-12-10T07:49:00;100346.15;;;-0.77;100.00
13367;BME280;6752;52.612;13.630;2022-12-10T07:54:06;100351.16;;;-0.56;100.00
13367;BME280;6752;52.612;13.630;2022-12-10T07:59:08;100361.12;;;-0.54;100.00
13367;BME280;6752;52.612;13.630;2022-12-10T08:04:13;100358.03;;;-0.54;100.00
13367;BME280;6752;52.612;13.630;2022-12-10T08:09:16;100364.95;;;-0.47;100.00
13367;BME280;6752;52.612;13.630;2022-12-10T08:14:21;100362.06;;;-0.50;100.00
13367;BME280;6752;52.612;13.630;2022-12-10T08:19:24;100369.05;;;-0.31;100.00
13367;BME280;6752;52.612;13.630;2022-12-10T08:24:29;100372.83;;;-0.29;100.00
13367;BME280;6752;52.612;13.630;2022-12-10T08:29:31;100379.05;;;-0.24;100.00
13367;BME280;6752;52.612;13.630;2022-12-10T08:34:34;100381.59;;;-0.23;100.00
13367;BME280;6752;52.612;13.630;2022-12-10T08:39:36;100391.38;;;-0.35;100.00
13367;BME280;6752;52.612;13.630;2022-12-10T08:44:42;100386.13;;;-0.32;100.00
13367;BME280;6752;52.612;13.630;2022-12-10T08:49:48;100378.25;;;-0.34;100.00
13367;BME280;6752;52.612;13.630;2022-12-10T08:54:47;100381.07;;;-0.09;100.00
13367;BME280;6752;52.612;13.630;2022-12-10T08:59:49;100397.65;;;0.03;100.00
13367;BME280;6752;52.612;13.630;2022-12-10T09:04:51;100393.29;;;0.02;100.00
13367;BME280;6752;52.612;13.630;2022-12-10T09:09:54;100396.50;;;0.10;100.00
13367;BME280;6752;52.612;13.630;2022-12-10T09:14:56;100398.41;;;0.05;100.00
13367;BME280;6752;52.612;13.630;2022-12-10T09:19:59;100404.19;;;0.05;100.00
13367;BME280;6752;52.612;13.630;2022-12-10T09:25:01;100399.26;;;0.09;100.00
13367;BME280;6752;52.612;13.630;2022-12-10T09:30:04;100407.96;;;0.07;100.00
13367;BME280;6752;52.612;13.630;2022-12-10T09:35:07;100409.80;;;0.07;100.00
13367;BME280;6752;52.612;13.630;2022-12-10T09:40:22;100405.65;;;0.16;100.00
13367;BME280;6752;52.612;13.630;2022-12-10T09:45:35;100410.58;;;0.12;100.00
13367;BME280;6752;52.612;13.630;2022-12-10T09:51:03;100397.70;;;0.20;100.00
13367;BME280;6752;52.612;13.630;2022-12-10T09:55:59;100401.52;;;0.26;100.00
13367;BME280;6752;52.612;13.630;2022-12-10T10:01:03;100399.70;;;0.18;100.00
13367;BME280;6752;52.612;13.630;2022-12-10T10:06:03;100390.55;;;0.28;100.00
13367;BME280;6752;52.612;13.630;2022-12-10T10:11:19;100396.26;;;0.12;100.00
13367;BME280;6752;52.612;13.630;2022-12-10T10:16:26;100397.45;;;0.18;100.00
13367;BME280;6752;52.612;13.630;2022-12-10T10:21:53;100400.95;;;0.14;100.00
13367;BME280;6752;52.612;13.630;2022-12-10T10:26:39;100405.38;;;0.10;100.00
13367;BME280;6752;52.612;13.630;2022-12-10T10:31:44;100406.13;;;0.08;100.00
13367;BME280;6752;52.612;13.630;2022-12-10T10:36:47;100406.64;;;0.11;100.00
13367;BME280;6752;52.612;13.630;2022-12-10T10:41:53;100401.89;;;0.18;100.00
13367;BME280;6752;52.612;13.630;2022-12-10T10:46:57;100392.75;;;0.33;100.00
13367;BME280;6752;52.612;13.630;2022-12-10T10:52:00;100391.83;;;0.16;100.00
13367;BME280;6752;52.612;13.630;2022-12-10T10:57:25;100382.53;;;0.36;100.00
13367;BME280;6752;52.612;13.630;2022-12-10T11:02:38;100377.67;;;0.36;100.00
13367;BME280;6752;52.612;13.630;2022-12-10T11:07:40;100374.01;;;0.45;100.00
13367;BME280;6752;52.612;13.630;2022-12-10T11:12:53;100370.44;;;0.49;100.00
13367;BME280;6752;52.612;13.630;2022-12-10T11:17:51;100372.89;;;0.35;100.00
13367;BME280;6752;52.612;13.630;2022-12-10T11:22:59;100370.05;;;0.36;100.00
13367;BME280;6752;52.612;13.630;2022-12-10T11:28:03;100366.53;;;0.36;100.00
13367;BME280;6752;52.612;13.630;2022-12-10T11:33:26;100371.33;;;0.45;100.00
13367;BME280;6752;52.612;13.630;2022-12-10T11:38:34;100363.94;;;0.35;100.00
13367;BME280;6752;52.612;13.630;2022-12-10T11:54:17;100363.76;;;0.32;100.00
13367;BME280;6752;52.612;13.630;2022-12-10T11:59:23;100359.83;;;0.14;100.00
13367;BME280;6752;52.612;13.630;2022-12-10T12:14:55;100369.30;;;0.18;100.00
13367;BME280;6752;52.612;13.630;2022-12-10T12:19:57;100373.72;;;0.27;100.00
13367;BME280;6752;52.612;13.630;2022-12-10T12:25:22;100380.12;;;0.21;100.00
13367;BME280;6752;52.612;13.630;2022-12-10T12:30:25;100386.55;;;0.15;100.00
13367;BME280;6752;52.612;13.630;2022-12-10T12:35:38;100380.50;;;0.26;100.00
13367;BME280;6752;52.612;13.630;2022-12-10T12:40:48;100383.55;;;0.39;100.00
13367;BME280;6752;52.612;13.630;2022-12-10T12:45:47;100381.77;;;0.31;100.00
13367;BME280;6752;52.612;13.630;2022-12-10T12:51:37;100379.00;;;0.32;100.00
13367;BME280;6752;52.612;13.630;2022-12-10T12:55:55;100384.12;;;0.17;100.00
13367;BME280;6752;52.612;13.630;2022-12-10T13:00:56;100374.76;;;0.21;100.00
13367;BME280;6752;52.612;13.630;2022-12-10T13:06:11;100376.02;;;0.22;100.00
13367;BME280;6752;52.612;13.630;2022-12-10T13:11:16;100390.39;;;0.13;100.00
13367;BME280;6752;52.612;13.630;2022-12-10T13:21:59;100395.77;;;0.17;100.00
13367;BME280;6752;52.612;13.630;2022-12-10T13:27:29;100395.42;;;0.29;100.00
13367;BME280;6752;52.612;13.630;2022-12-10T13:37:36;100417.70;;;0.29;100.00
13367;BME280;6752;52.612;13.630;2022-12-10T13:42:43;100415.89;;;0.38;100.00
13367;BME280;6752;52.612;13.630;2022-12-10T13:53:30;100416.89;;;0.20;100.00
13367;BME280;6752;52.612;13.630;2022-12-10T14:09:03;100424.41;;;0.29;100.00
13367;BME280;6752;52.612;13.630;2022-12-10T14:14:10;100424.66;;;0.31;100.00
13367;BME280;6752;52.612;13.630;2022-12-10T14:19:11;100409.08;;;0.30;100.00
13367;BME280;6752;52.612;13.630;2022-12-10T14:24:31;100422.38;;;0.10;100.00
13367;BME280;6752;52.612;13.630;2022-12-10T14:29:32;100417.36;;;0.28;100.00
13367;BME280;6752;52.612;13.630;2022-12-10T14:34:34;100419.78;;;0.09;100.00
13367;BME280;6752;52.612;13.630;2022-12-10T14:39:37;100424.08;;;0.15;100.00
13367;BME280;6752;52.612;13.630;2022-12-10T14:44:42;100423.16;;;0.15;100.00
13367;BME280;6752;52.612;13.630;2022-12-10T14:49:45;100432.86;;;0.12;100.00
13367;BME280;6752;52.612;13.630;2022-12-10T14:54:50;100437.02;;;0.45;100.00
13367;BME280;6752;52.612;13.630;2022-12-10T15:00:14;100435.97;;;0.72;100.00
13367;BME280;6752;52.612;13.630;2022-12-10T15:05:20;100439.09;;;0.80;100.00
13367;BME280;6752;52.612;13.630;2022-12-10T15:10:24;100439.76;;;0.36;100.00
13367;BME280;6752;52.612;13.630;2022-12-10T15:15:31;100443.53;;;0.38;100.00
13367;BME280;6752;52.612;13.630;2022-12-10T15:25:57;100446.26;;;0.12;100.00
13367;BME280;6752;52.612;13.630;2022-12-10T15:36:33;100454.27;;;0.04;100.00
13367;BME280;6752;52.612;13.630;2022-12-10T15:41:43;100452.42;;;0.05;100.00
13367;BME280;6752;52.612;13.630;2022-12-10T15:47:10;100447.53;;;0.17;100.00
13367;BME280;6752;52.612;13.630;2022-12-10T15:52:21;100451.49;;;0.22;100.00
13367;BME280;6752;52.612;13.630;2022-12-10T15:57:26;100454.89;;;0.15;100.00
13367;BME280;6752;52.612;13.630;2022-12-10T16:02:42;100441.93;;;0.20;100.00
13367;BME280;6752;52.612;13.630;2022-12-10T16:07:43;100444.27;;;0.19;100.00
13367;BME280;6752;52.612;13.630;2022-12-10T16:12:49;100452.88;;;0.13;100.00
13367;BME280;6752;52.612;13.630;2022-12-10T16:17:50;100453.82;;;0.00;100.00
13367;BME280;6752;52.612;13.630;2022-12-10T16:22:53;100453.31;;;0.18;100.00
13367;BME280;6752;52.612;13.630;2022-12-10T16:27:55;100454.18;;;0.05;100.00
13367;BME280;6752;52.612;13.630;2022-12-10T16:33:00;100456.50;;;0.00;100.00
13367;BME280;6752;52.612;13.630;2022-12-10T16:38:03;100454.16;;;0.01;100.00
13367;BME280;6752;52.612;13.630;2022-12-10T16:43:21;100461.28;;;0.01;100.00
13367;BME280;6752;52.612;13.630;2022-12-10T16:48:23;100463.70;;;0.17;100.00
13367;BME280;6752;52.612;13.630;2022-12-10T16:53:28;100458.45;;;0.07;100.00
13367;BME280;6752;52.612;13.630;2022-12-10T16:58:30;100475.36;;;0.20;100.00
13367;BME280;6752;52.612;13.630;2022-12-10T17:03:33;100467.84;;;0.07;100.00
13367;BME280;6752;52.612;13.630;2022-12-10T17:08:35;100468.38;;;0.14;100.00
13367;BME280;6752;52.612;13.630;2022-12-10T17:13:40;100469.39;;;0.18;100.00
13367;BME280;6752;52.612;13.630;2022-12-10T17:18:43;100463.86;;;0.15;100.00
13367;BME280;6752;52.612;13.630;2022-12-10T17:23:48;100468.81;;;0.02;100.00
13367;BME280;6752;52.612;13.630;2022-12-10T17:28:50;100473.68;;;0.02;100.00
13367;BME280;6752;52.612;13.630;2022-12-10T17:33:59;100466.98;;;0.02;100.00
13367;BME280;6752;52.612;13.630;2022-12-10T17:38:58;100475.14;;;0.10;100.00
13367;BME280;6752;52.612;13.630;2022-12-10T17:44:03;100471.45;;;0.11;100.00
13367;BME280;6752;52.612;13.630;2022-12-10T17:49:05;100477.06;;;0.08;100.00
13367;BME280;6752;52.612;13.630;2022-12-10T17:54:11;100474.67;;;0.01;100.00
13367;BME280;6752;52.612;13.630;2022-12-10T17:59:13;100480.38;;;-0.07;100.00
13367;BME280;6752;52.612;13.630;2022-12-10T18:04:18;100480.95;;;0.01;100.00
13367;BME280;6752;52.612;13.630;2022-12-10T18:09:21;100477.48;;;0.00;100.00
13367;BME280;6752;52.612;13.630;2022-12-10T18:14:24;100477.28;;;0.02;100.00
13367;BME280;6752;52.612;13.630;2022-12-10T18:19:26;100475.16;;;0.14;100.00
13367;BME280;6752;52.612;13.630;2022-12-10T18:24:31;100477.80;;;0.06;100.00
13367;BME280;6752;52.612;13.630;2022-12-10T18:29:34;100480.46;;;-0.07;100.00
13367;BME280;6752;52.612;13.630;2022-12-10T18:34:39;100491.44;;;0.03;100.00
13367;BME280;6752;52.612;13.630;2022-12-10T18:39:41;100491.46;;;-0.02;100.00
13367;BME280;6752;52.612;13.630;2022-12-10T18:44:46;100484.00;;;0.06;100.00
13367;BME280;6752;52.612;13.630;2022-12-10T18:49:49;100486.41;;;0.04;100.00
13367;BME280;6752;52.612;13.630;2022-12-10T18:54:54;100488.48;;;-0.11;100.00
13367;BME280;6752;52.612;13.630;2022-12-10T18:59:57;100489.34;;;-0.07;100.00
13367;BME280;6752;52.612;13.630;2022-12-10T19:04:59;100485.23;;;0.03;100.00
13367;BME280;6752;52.612;13.630;2022-12-10T19:10:02;100494.95;;;-0.05;100.00
13367;BME280;6752;52.612;13.630;2022-12-10T19:15:04;100493.17;;;-0.09;100.00
13367;BME280;6752;52.612;13.630;2022-12-10T19:20:19;100495.96;;;-0.19;100.00
13367;BME280;6752;52.612;13.630;2022-12-10T19:25:20;100498.72;;;-0.20;100.00
13367;BME280;6752;52.612;13.630;2022-12-10T19:30:24;100489.34;;;-0.20;100.00
13367;BME280;6752;52.612;13.630;2022-12-10T19:35:25;100498.30;;;-0.20;100.00
13367;BME280;6752;52.612;13.630;2022-12-10T19:40:28;100505.36;;;-0.24;100.00
13367;BME280;6752;52.612;13.630;2022-12-10T19:45:30;100498.73;;;-0.25;100.00
13367;BME280;6752;52.612;13.630;2022-12-10T19:50:33;100499.11;;;-0.33;100.00
13367;BME280;6752;52.612;13.630;2022-12-10T19:55:35;100497.64;;;-0.27;100.00
13367;BME280;6752;52.612;13.630;2022-12-10T20:00:37;100505.48;;;-0.29;100.00
13367;BME280;6752;52.612;13.630;2022-12-10T20:05:39;100500.68;;;-0.35;100.00
13367;BME280;6752;52.612;13.630;2022-12-10T20:10:42;100497.45;;;-0.42;100.00
13367;BME280;6752;52.612;13.630;2022-12-10T20:15:45;100511.50;;;-0.32;100.00
13367;BME280;6752;52.612;13.630;2022-12-10T20:20:46;100500.80;;;-0.49;100.00
13367;BME280;6752;52.612;13.630;2022-12-10T20:25:49;100507.21;;;-0.46;100.00
13367;BME280;6752;52.612;13.630;2022-12-10T20:30:51;100497.90;;;-0.56;100.00
13367;BME280;6752;52.612;13.630;2022-12-10T20:35:54;100494.67;;;-0.51;100.00
13367;BME280;6752;52.612;13.630;2022-12-10T20:40:56;100495.23;;;-0.47;100.00
13367;BME280;6752;52.612;13.630;2022-12-10T20:45:58;100501.34;;;-0.37;100.00
13367;BME280;6752;52.612;13.630;2022-12-10T20:51:01;100500.28;;;-0.44;100.00
13367;BME280;6752;52.612;13.630;2022-12-10T20:56:03;100504.09;;;-0.25;100.00
13367;BME280;6752;52.612;13.630;2022-12-10T21:01:05;100497.42;;;-0.47;100.00
13367;BME280;6752;52.612;13.630;2022-12-10T21:06:13;100490.86;;;-0.39;100.00
13367;BME280;6752;52.612;13.630;2022-12-10T21:11:13;100495.69;;;-0.43;100.00
13367;BME280;6752;52.612;13.630;2022-12-10T21:16:16;100493.77;;;-0.41;100.00
13367;BME280;6752;52.612;13.630;2022-12-10T21:21:17;100501.26;;;-0.54;100.00
13367;BME280;6752;52.612;13.630;2022-12-10T21:26:19;100488.59;;;-0.48;100.00
13367;BME280;6752;52.612;13.630;2022-12-10T21:31:22;100484.74;;;-0.41;100.00
13367;BME280;6752;52.612;13.630;2022-12-10T21:36:23;100481.71;;;-0.50;100.00
13367;BME280;6752;52.612;13.630;2022-12-10T21:41:25;100487.91;;;-0.41;100.00
13367;BME280;6752;52.612;13.630;2022-12-10T21:46:48;100480.54;;;-0.43;100.00
13367;BME280;6752;52.612;13.630;2022-12-10T21:51:50;100483.22;;;-0.30;100.00
13367;BME280;6752;52.612;13.630;2022-12-10T21:56:53;100477.89;;;-0.26;100.00
13367;BME280;6752;52.612;13.630;2022-12-10T22:01:55;100476.19;;;-0.22;100.00
13367;BME280;6752;52.612;13.630;2022-12-10T22:07:00;100477.47;;;-0.17;100.00
13367;BME280;6752;52.612;13.630;2022-12-10T22:12:02;100477.13;;;-0.18;100.00
13367;BME280;6752;52.612;13.630;2022-12-10T22:17:05;100477.89;;;-0.26;100.00
13367;BME280;6752;52.612;13.630;2022-12-10T22:22:07;100472.72;;;-0.14;100.00
13367;BME280;6752;52.612;13.630;2022-12-10T22:27:09;100471.80;;;-0.36;100.00
13367;BME280;6752;52.612;13.630;2022-12-10T22:32:16;100475.81;;;-0.36;100.00
13367;BME280;6752;52.612;13.630;2022-12-10T22:37:20;100475.58;;;-0.47;100.00
13367;BME280;6752;52.612;13.630;2022-12-10T22:42:27;100477.78;;;-0.42;100.00
13367;BME280;6752;52.612;13.630;2022-12-10T22:47:32;100470.97;;;-0.54;100.00
13367;BME280;6752;52.612;13.630;2022-12-10T22:52:35;100471.73;;;-0.53;100.00
13367;BME280;6752;52.612;13.630;2022-12-10T22:57:41;100468.70;;;-0.36;100.00
13367;BME280;6752;52.612;13.630;2022-12-10T23:02:43;100464.81;;;-0.42;100.00
13367;BME280;6752;52.612;13.630;2022-12-10T23:07:49;100456.39;;;-0.38;100.00
13367;BME280;6752;52.612;13.630;2022-12-10T23:12:51;100456.17;;;-0.45;100.00
13367;BME280;6752;52.612;13.630;2022-12-10T23:18:15;100455.59;;;-0.52;100.00
13367;BME280;6752;52.612;13.630;2022-12-10T23:23:22;100459.54;;;-0.43;100.00
13367;BME280;6752;52.612;13.630;2022-12-10T23:28:24;100449.66;;;-0.29;100.00
13367;BME280;6752;52.612;13.630;2022-12-10T23:33:32;100448.30;;;-0.33;100.00
13367;BME280;6752;52.612;13.630;2022-12-10T23:38:35;100449.56;;;-0.24;100.00
13367;BME280;6752;52.612;13.630;2022-12-10T23:43:43;100461.88;;;-0.31;100.00
13367;BME280;6752;52.612;13.630;2022-12-10T23:48:46;100461.34;;;-0.34;100.00
13367;BME280;6752;52.612;13.630;2022-12-10T23:53:51;100448.93;;;-0.39;100.00
13367;BME280;6752;52.612;13.630;2022-12-10T23:58:54;100453.27;;;-0.42;100.00
